createdAt,value
2022-10-23T00:00:38.914Z,8.10
2022-10-23T00:03:46.252Z,7.50
2022-10-23T00:06:54.396Z,7.50
2022-10-23T00:10:02.466Z,7.60
2022-10-23T00:13:09.811Z,7.10
2022-10-23T00:16:17.933Z,7.20
2022-10-23T00:19:25.683Z,6.90
2022-10-23T00:22:35.077Z,7.40
2022-10-23T00:25:43.098Z,7.70
2022-10-23T00:28:51.258Z,8.30
2022-10-23T00:31:59.830Z,8.90
2022-10-23T00:35:08.319Z,7.80
2022-10-23T00:38:16.707Z,8.40
2022-10-23T00:41:24.162Z,8.00
2022-10-23T00:44:32.090Z,8.80
2022-10-23T00:47:39.763Z,8.00
2022-10-23T00:50:47.400Z,7.90
2022-10-23T00:54:01.287Z,8.50
2022-10-23T00:57:00.304Z,7.90
2022-10-23T01:00:07.803Z,8.30
2022-10-23T01:03:15.472Z,8.10
2022-10-23T01:06:23.492Z,9.10
2022-10-23T01:09:31.187Z,8.50
2022-10-23T01:12:38.895Z,7.90
2022-10-23T01:15:47.075Z,8.70
2022-10-23T01:18:54.431Z,8.10
2022-10-23T01:22:02.476Z,8.10
2022-10-23T01:25:10.549Z,7.50
2022-10-23T01:28:17.769Z,7.40
2022-10-23T01:31:25.871Z,7.40
2022-10-23T01:34:33.540Z,7.50
2022-10-23T01:37:41.252Z,7.60
2022-10-23T01:40:49.295Z,7.70
2022-10-23T01:43:56.856Z,7.50
2022-10-23T01:47:04.515Z,7.60
2022-10-23T01:50:12.687Z,7.70
2022-10-23T01:53:20.266Z,7.20
2022-10-23T01:56:27.916Z,7.90
2022-10-23T01:59:35.585Z,7.80
2022-10-23T02:02:43.699Z,7.60
2022-10-23T02:05:51.435Z,7.80
2022-10-23T02:08:59.129Z,7.50
2022-10-23T02:12:06.862Z,8.40
2022-10-23T02:15:14.407Z,8.10
2022-10-23T02:18:22.080Z,7.50
2022-10-23T02:21:29.644Z,7.80
2022-10-23T02:24:37.373Z,7.30
2022-10-23T02:27:45.280Z,7.70
2022-10-23T02:30:53.003Z,7.90
2022-10-23T02:34:00.692Z,8.30
2022-10-23T02:37:08.591Z,7.90
2022-10-23T02:40:16.219Z,8.20
2022-10-23T02:43:23.568Z,8.20
2022-10-23T02:46:31.411Z,8.00
2022-10-23T02:49:38.676Z,7.90
2022-10-23T02:52:46.549Z,8.10
2022-10-23T02:55:54.666Z,8.40
2022-10-23T02:59:02.041Z,8.30
2022-10-23T03:02:10.158Z,8.10
2022-10-23T03:05:18.411Z,7.80
2022-10-23T03:08:25.740Z,7.30
2022-10-23T03:11:33.865Z,7.80
2022-10-23T03:14:41.624Z,7.60
2022-10-23T03:17:49.353Z,7.70
2022-10-23T03:20:57.235Z,7.60
2022-10-23T03:24:05.035Z,8.00
2022-10-23T03:27:12.821Z,7.90
2022-10-23T03:30:20.651Z,8.50
2022-10-23T03:33:28.508Z,7.80
2022-10-23T03:36:36.579Z,8.00
2022-10-23T03:39:43.960Z,7.80
2022-10-23T03:42:52.098Z,7.80
2022-10-23T03:45:59.862Z,7.60
2022-10-23T03:49:07.178Z,7.40
2022-10-23T03:52:15.124Z,7.70
2022-10-23T03:55:22.875Z,8.30
2022-10-23T03:58:30.431Z,7.20
2022-10-23T04:01:38.662Z,7.20
2022-10-23T04:04:46.345Z,7.40
2022-10-23T04:07:54.032Z,6.90
2022-10-23T04:11:02.427Z,6.30
2022-10-23T04:14:09.693Z,6.40
2022-10-23T04:17:17.921Z,6.50
2022-10-23T04:20:25.502Z,6.80
2022-10-23T04:23:32.728Z,6.20
2022-10-23T04:26:40.931Z,6.30
2022-10-23T04:29:48.921Z,5.70
2022-10-23T04:32:56.120Z,5.80
2022-10-23T04:36:04.227Z,5.60
2022-10-23T04:39:12.326Z,5.40
2022-10-23T04:42:19.627Z,6.40
2022-10-23T04:45:27.728Z,5.90
2022-10-23T04:48:35.320Z,5.70
2022-10-23T04:51:42.914Z,5.40
2022-10-23T04:54:51.011Z,5.20
2022-10-23T04:57:58.589Z,5.20
2022-10-23T05:01:06.104Z,4.70
2022-10-23T05:04:14.038Z,5.20
2022-10-23T05:10:29.148Z,5.40
2022-10-23T05:13:36.991Z,5.30
2022-10-23T05:16:44.613Z,5.10
2022-10-23T05:19:52.345Z,5.30
2022-10-23T05:23:00.176Z,5.50
2022-10-23T05:26:07.673Z,5.30
2022-10-23T05:29:15.322Z,4.40
2022-10-23T05:32:22.879Z,4.80
2022-10-23T05:35:30.727Z,3.90
2022-10-23T05:38:38.519Z,3.30
2022-10-23T05:41:46.320Z,4.00
2022-10-23T05:44:54.156Z,4.30
2022-10-23T05:48:11.103Z,4.10
2022-10-23T05:51:06.761Z,4.30
2022-10-23T05:54:14.645Z,4.50
2022-10-23T05:57:22.075Z,4.30
2022-10-23T06:00:30.167Z,5.30
2022-10-23T06:03:37.893Z,4.80
2022-10-23T06:06:45.136Z,4.60
2022-10-23T06:09:53.145Z,4.90
2022-10-23T06:13:00.586Z,5.30
2022-10-23T06:16:09.864Z,5.70
2022-10-23T06:19:17.780Z,5.20
2022-10-23T06:22:25.222Z,6.10
2022-10-23T06:25:33.326Z,5.70
2022-10-23T06:28:41.501Z,5.70
2022-10-23T06:31:49.189Z,5.50
2022-10-23T06:34:57.132Z,5.50
2022-10-23T06:38:04.893Z,5.70
2022-10-23T06:41:12.682Z,6.40
2022-10-23T06:44:21.028Z,6.80
2022-10-23T06:47:28.556Z,5.80
2022-10-23T06:50:36.386Z,6.00
2022-10-23T06:53:44.241Z,6.10
2022-10-23T06:56:51.414Z,5.20
2022-10-23T06:59:59.487Z,6.30
2022-10-23T07:03:06.838Z,5.50
2022-10-23T07:06:14.709Z,5.20
2022-10-23T07:09:22.044Z,5.30
2022-10-23T07:12:29.544Z,4.80
2022-10-23T07:15:37.180Z,4.70
2022-10-23T07:18:44.842Z,4.60
2022-10-23T07:21:52.600Z,4.20
2022-10-23T07:25:00.303Z,3.80
2022-10-23T07:28:08.193Z,4.00
2022-10-23T07:31:15.834Z,4.20
2022-10-23T07:34:23.204Z,4.40
2022-10-23T07:37:31.240Z,4.30
2022-10-23T07:40:38.849Z,3.70
2022-10-23T07:43:46.379Z,3.90
2022-10-23T07:46:53.977Z,3.80
2022-10-23T07:50:02.328Z,3.70
2022-10-23T07:53:10.263Z,3.30
2022-10-23T07:56:18.220Z,3.60
2022-10-23T07:59:26.262Z,2.80
2022-10-23T08:02:34.375Z,2.70
2022-10-23T08:05:43.579Z,2.90
2022-10-23T08:08:52.396Z,3.10
2022-10-23T08:11:59.965Z,3.00
2022-10-23T08:15:08.998Z,3.00
2022-10-23T08:18:17.398Z,2.80
2022-10-23T08:21:25.017Z,2.40
2022-10-23T08:24:33.949Z,2.80
2022-10-23T08:27:43.108Z,2.70
2022-10-23T08:30:51.257Z,3.10
2022-10-23T08:34:00.220Z,2.70
2022-10-23T08:37:09.058Z,3.00
2022-10-23T08:40:16.764Z,2.70
2022-10-23T08:43:25.442Z,2.30
2022-10-23T08:46:33.760Z,2.60
2022-10-23T08:49:42.086Z,2.30
2022-10-23T08:52:51.121Z,3.00
2022-10-23T08:55:59.003Z,3.10
2022-10-23T08:59:07.143Z,2.50
2022-10-23T09:02:16.113Z,2.40
2022-10-23T09:05:23.871Z,2.20
2022-10-23T09:08:32.031Z,2.40
2022-10-23T09:11:39.963Z,2.30
2022-10-23T09:14:48.713Z,2.20
2022-10-23T09:17:56.893Z,2.40
2022-10-23T09:21:05.243Z,1.60
2022-10-23T09:24:13.214Z,1.90
2022-10-23T09:27:21.956Z,2.20
2022-10-23T09:30:30.260Z,1.50
2022-10-23T09:33:38.320Z,2.00
2022-10-23T09:36:46.708Z,1.90
2022-10-23T09:39:55.325Z,1.60
2022-10-23T09:43:03.160Z,1.30
2022-10-23T09:46:11.339Z,1.50
2022-10-23T09:49:19.694Z,2.00
2022-10-23T09:52:28.011Z,1.40
2022-10-23T09:55:36.304Z,2.10
2022-10-23T09:58:45.025Z,1.50
2022-10-23T10:01:53.051Z,1.20
2022-10-23T10:05:01.574Z,1.50
2022-10-23T10:08:10.342Z,1.60
2022-10-23T10:11:18.138Z,1.40
2022-10-23T10:14:26.793Z,1.50
2022-10-23T10:17:35.363Z,1.60
2022-10-23T10:20:43.350Z,1.60
2022-10-23T10:23:51.792Z,1.60
2022-10-23T10:26:59.846Z,1.00
2022-10-23T10:30:08.445Z,1.00
2022-10-23T10:33:16.912Z,1.20
2022-10-23T10:39:33.854Z,1.20
2022-10-23T10:42:41.964Z,1.20
2022-10-23T10:45:50.130Z,1.30
2022-10-23T10:48:58.383Z,1.00
2022-10-23T10:52:07.101Z,0.90
2022-10-23T10:55:16.492Z,0.80
2022-10-23T10:58:24.431Z,1.10
2022-10-23T11:01:32.670Z,0.80
2022-10-23T11:04:41.596Z,0.80
2022-10-23T11:07:50.436Z,1.20
2022-10-23T11:10:58.492Z,1.00
2022-10-23T11:14:06.949Z,1.20
2022-10-23T11:17:15.264Z,0.90
2022-10-23T11:20:23.871Z,1.00
2022-10-23T11:23:32.412Z,0.80
2022-10-23T11:26:40.103Z,0.90
2022-10-23T11:29:49.295Z,0.80
2022-10-23T11:32:58.005Z,0.80
2022-10-23T11:36:05.785Z,0.80
2022-10-23T11:39:13.896Z,0.70
2022-10-23T11:42:21.950Z,0.70
2022-10-23T11:45:29.242Z,1.10
2022-10-23T11:48:37.344Z,1.10
2022-10-23T11:51:45.031Z,1.60
2022-10-23T11:54:52.703Z,12.70
2022-10-23T11:58:00.593Z,9.60
2022-10-23T12:01:08.123Z,7.80
2022-10-23T12:04:15.784Z,1.60
2022-10-23T12:07:23.709Z,1.50
2022-10-23T12:10:31.425Z,1.70
2022-10-23T12:13:39.077Z,2.70
2022-10-23T12:16:46.979Z,4.80
2022-10-23T12:19:54.319Z,0.90
2022-10-23T12:23:01.941Z,0.90
2022-10-23T12:26:09.581Z,0.90
2022-10-23T12:29:17.806Z,1.00
2022-10-23T12:32:25.414Z,0.90
2022-10-23T12:35:33.136Z,0.70
2022-10-23T12:38:41.137Z,0.80
2022-10-23T12:41:48.476Z,0.60
2022-10-23T12:44:56.499Z,0.80
2022-10-23T12:48:04.575Z,0.90
2022-10-23T12:51:11.787Z,0.80
2022-10-23T12:54:19.784Z,0.60
2022-10-23T12:57:27.900Z,0.70
2022-10-23T13:00:35.323Z,0.70
2022-10-23T13:03:43.534Z,0.50
2022-10-23T13:06:51.647Z,0.90
2022-10-23T13:09:58.958Z,0.70
2022-10-23T13:13:06.900Z,0.70
2022-10-23T13:16:14.979Z,0.60
2022-10-23T13:19:22.231Z,0.80
2022-10-23T13:22:30.272Z,1.10
2022-10-23T13:25:37.892Z,0.70
2022-10-23T13:28:45.374Z,0.90
2022-10-23T13:31:53.282Z,0.60
2022-10-23T13:35:10.044Z,0.90
2022-10-23T13:38:05.966Z,0.90
2022-10-23T13:41:13.920Z,0.90
2022-10-23T13:44:21.997Z,0.50
2022-10-23T13:47:29.579Z,0.60
2022-10-23T13:50:37.342Z,0.50
2022-10-23T13:53:45.427Z,0.70
2022-10-23T13:56:53.201Z,0.90
2022-10-23T14:00:00.963Z,0.70
2022-10-23T14:03:08.644Z,0.90
2022-10-23T14:06:16.174Z,0.80
2022-10-23T14:09:24.036Z,0.80
2022-10-23T14:12:32.500Z,1.00
2022-10-23T14:15:40.362Z,0.80
2022-10-23T14:18:48.451Z,0.80
2022-10-23T14:21:56.510Z,0.80
2022-10-23T14:25:03.762Z,0.70
2022-10-23T14:28:11.760Z,0.80
2022-10-23T14:31:19.774Z,0.70
2022-10-23T14:34:27.046Z,0.70
2022-10-23T14:37:34.900Z,0.70
2022-10-23T14:40:42.729Z,1.20
2022-10-23T14:43:50.396Z,0.80
2022-10-23T14:46:58.524Z,0.60
2022-10-23T14:50:06.292Z,0.80
2022-10-23T14:53:14.001Z,0.80
2022-10-23T14:56:21.880Z,0.50
2022-10-23T14:59:30.014Z,0.40
2022-10-23T15:02:37.623Z,0.50
2022-10-23T15:05:45.415Z,0.90
2022-10-23T15:08:53.626Z,0.40
2022-10-23T15:12:01.076Z,0.80
2022-10-23T15:15:08.851Z,0.50
2022-10-23T15:18:17.039Z,0.70
2022-10-23T15:21:24.481Z,0.60
2022-10-23T15:24:32.791Z,0.70
2022-10-23T15:27:40.805Z,0.60
2022-10-23T15:30:47.980Z,0.80
2022-10-23T15:33:56.056Z,0.60
2022-10-23T15:37:04.174Z,0.60
2022-10-23T15:40:11.505Z,0.60
2022-10-23T15:43:19.566Z,0.80
2022-10-23T15:46:27.108Z,0.80
2022-10-23T15:49:34.969Z,0.60
2022-10-23T15:52:43.327Z,0.70
2022-10-23T15:55:51.069Z,0.70
2022-10-23T15:58:58.884Z,0.50
2022-10-23T16:02:07.057Z,0.60
2022-10-23T16:05:14.516Z,0.70
2022-10-23T16:08:22.135Z,0.70
2022-10-23T16:11:29.938Z,0.70
2022-10-23T16:14:38.295Z,0.70
2022-10-23T16:17:46.672Z,0.50
2022-10-23T16:20:54.009Z,0.60
2022-10-23T16:24:01.899Z,0.70
2022-10-23T16:27:09.697Z,0.60
2022-10-23T16:30:17.240Z,0.60
2022-10-23T16:33:24.979Z,0.70
2022-10-23T16:36:32.953Z,0.80
2022-10-23T16:39:40.671Z,0.80
2022-10-23T16:42:48.182Z,0.60
2022-10-23T16:45:55.703Z,0.90
2022-10-23T16:49:04.148Z,1.10
2022-10-23T16:52:11.967Z,0.90
2022-10-23T16:55:19.351Z,1.20
2022-10-23T16:58:27.809Z,1.30
2022-10-23T17:01:36.161Z,1.40
2022-10-23T17:04:43.624Z,1.20
2022-10-23T17:07:51.613Z,1.00
2022-10-23T17:10:59.345Z,1.20
2022-10-23T17:14:07.442Z,1.30
2022-10-23T17:17:15.574Z,1.60
2022-10-23T17:20:23.379Z,1.40
2022-10-23T17:23:31.035Z,0.90
2022-10-23T17:26:39.891Z,1.30
2022-10-23T17:29:47.945Z,1.10
2022-10-23T17:32:59.386Z,1.40
2022-10-23T17:35:58.608Z,1.30
2022-10-23T17:39:06.610Z,1.60
2022-10-23T17:42:14.424Z,1.50
2022-10-23T17:45:22.144Z,1.60
2022-10-23T17:48:30.802Z,1.40
2022-10-23T17:51:38.788Z,1.80
2022-10-23T17:54:46.765Z,1.90
2022-10-23T17:57:55.025Z,2.10
2022-10-23T18:01:02.621Z,2.00
2022-10-23T18:04:10.689Z,2.00
2022-10-23T18:07:19.068Z,2.40
2022-10-23T18:10:26.757Z,2.20
2022-10-23T18:13:35.370Z,2.20
2022-10-23T18:16:42.881Z,2.30
2022-10-23T18:19:50.461Z,2.40
2022-10-23T18:22:58.683Z,2.50
2022-10-23T18:26:06.875Z,2.00
2022-10-23T18:29:14.396Z,1.70
2022-10-23T18:32:22.617Z,1.90
2022-10-23T18:35:30.679Z,1.90
2022-10-23T18:38:38.786Z,1.50
2022-10-23T18:41:47.213Z,1.80
2022-10-23T18:44:55.159Z,2.40
2022-10-23T18:48:04.120Z,2.00
2022-10-23T18:51:14.903Z,1.60
2022-10-23T18:54:13.031Z,2.00
2022-10-23T18:57:20.451Z,2.60
2022-10-23T19:00:28.395Z,2.30
2022-10-23T19:03:36.441Z,2.50
2022-10-23T19:06:44.569Z,2.40
2022-10-23T19:09:52.038Z,2.30
2022-10-23T19:12:59.928Z,2.60
2022-10-23T19:16:07.349Z,2.60
2022-10-23T19:19:16.241Z,2.40
2022-10-23T19:22:24.651Z,2.60
2022-10-23T19:25:32.382Z,2.90
2022-10-23T19:28:40.479Z,3.10
2022-10-23T19:31:48.965Z,3.40
2022-10-23T19:34:56.514Z,3.60
2022-10-23T19:38:04.985Z,3.60
2022-10-23T19:41:13.466Z,4.80
2022-10-23T19:44:20.909Z,4.50
2022-10-23T19:47:28.786Z,4.30
2022-10-23T19:50:37.309Z,4.20
2022-10-23T19:53:45.566Z,4.80
2022-10-23T19:56:53.635Z,5.20
2022-10-23T20:00:01.311Z,4.90
2022-10-23T20:03:09.082Z,5.00
2022-10-23T20:06:17.332Z,8.80
2022-10-23T20:09:25.228Z,6.90
2022-10-23T20:12:33.145Z,7.30
2022-10-23T20:15:40.905Z,7.00
2022-10-23T20:18:48.714Z,7.90
2022-10-23T20:21:56.357Z,7.80
2022-10-23T20:25:04.280Z,7.00
2022-10-23T20:28:14.363Z,7.80
2022-10-23T20:31:23.164Z,6.80
2022-10-23T20:34:30.952Z,6.40
2022-10-23T20:37:38.702Z,6.40
2022-10-23T20:40:46.136Z,6.00
2022-10-23T20:43:54.585Z,4.90
2022-10-23T20:47:02.386Z,3.70
2022-10-23T20:50:10.006Z,3.20
2022-10-23T20:53:18.240Z,3.20
2022-10-23T20:56:26.361Z,3.00
2022-10-23T20:59:33.670Z,2.60
2022-10-23T21:02:42.716Z,2.60
2022-10-23T21:05:52.208Z,3.20
2022-10-23T21:08:59.705Z,3.30
2022-10-23T21:12:07.789Z,2.80
2022-10-23T21:15:15.703Z,3.60
2022-10-23T21:18:33.634Z,3.20
2022-10-23T21:21:28.467Z,2.90
2022-10-23T21:24:36.038Z,3.00
2022-10-23T21:27:43.798Z,3.70
2022-10-23T21:30:52.086Z,3.70
2022-10-23T21:33:59.804Z,3.20
2022-10-23T21:37:15.165Z,3.40
2022-10-23T21:40:11.528Z,3.00
2022-10-23T21:43:19.721Z,2.60
2022-10-23T21:46:27.625Z,2.60
2022-10-23T21:49:35.288Z,3.40
2022-10-23T21:52:43.715Z,2.80
2022-10-23T21:55:51.544Z,3.20
2022-10-23T21:58:59.266Z,3.10
2022-10-23T22:02:07.126Z,3.10
2022-10-23T22:05:14.945Z,3.20
2022-10-23T22:08:22.650Z,3.10
2022-10-23T22:11:30.422Z,2.70
2022-10-23T22:14:37.719Z,3.00
2022-10-23T22:17:46.023Z,3.10
2022-10-23T22:20:56.246Z,3.00
2022-10-23T22:23:55.173Z,2.80
2022-10-23T22:27:03.021Z,3.20
2022-10-23T22:30:10.629Z,3.10
2022-10-23T22:33:18.194Z,2.70
2022-10-23T22:36:26.329Z,3.40
2022-10-23T22:39:34.143Z,2.70
2022-10-23T22:42:41.658Z,3.30
2022-10-23T22:45:49.755Z,3.50
2022-10-23T22:48:57.264Z,3.30
2022-10-23T22:52:05.429Z,3.20
2022-10-23T22:55:13.489Z,3.20
2022-10-23T22:58:20.792Z,3.70
2022-10-23T23:01:28.747Z,3.60
2022-10-23T23:04:38.144Z,3.00
2022-10-23T23:07:46.306Z,3.00
2022-10-23T23:10:54.719Z,3.30
2022-10-23T23:14:02.474Z,3.00
2022-10-23T23:17:10.192Z,2.90
2022-10-23T23:20:18.581Z,3.20
2022-10-23T23:23:26.328Z,2.80
2022-10-23T23:26:33.899Z,3.20
2022-10-23T23:29:42.053Z,3.10
2022-10-23T23:32:49.752Z,3.40
2022-10-23T23:35:57.498Z,2.70
2022-10-23T23:42:12.733Z,2.50
2022-10-23T23:45:20.535Z,2.70
2022-10-23T23:48:28.187Z,2.60
2022-10-23T23:51:36.248Z,2.40
2022-10-23T23:54:43.935Z,2.20
2022-10-23T23:57:51.726Z,2.60
